sensor_id;sensor_type;location;lat;lon;timestamp;P1;durP1;ratioP1;P2;durP2;ratioP2
44774;SDS011;31340;51.402;0.016;2023-06-14T00:01:58;6.80;;;2.95;;
44774;SDS011;31340;51.402;0.016;2023-06-14T00:04:26;9.48;;;3.92;;
44774;SDS011;31340;51.402;0.016;2023-06-14T00:06:55;10.57;;;3.70;;
44774;SDS011;31340;51.402;0.016;2023-06-14T00:09:23;8.63;;;3.45;;
44774;SDS011;31340;51.402;0.016;2023-06-14T00:11:51;6.40;;;3.40;;
44774;SDS011;31340;51.402;0.016;2023-06-14T00:14:19;7.95;;;3.42;;
44774;SDS011;31340;51.402;0.016;2023-06-14T00:16:47;8.10;;;3.67;;
44774;SDS011;31340;51.402;0.016;2023-06-14T00:19:15;12.15;;;3.75;;
44774;SDS011;31340;51.402;0.016;2023-06-14T00:21:43;7.05;;;3.45;;
44774;SDS011;31340;51.402;0.016;2023-06-14T00:24:11;9.75;;;3.60;;
44774;SDS011;31340;51.402;0.016;2023-06-14T00:26:38;8.65;;;3.63;;
44774;SDS011;31340;51.402;0.016;2023-06-14T00:29:06;8.70;;;3.60;;
44774;SDS011;31340;51.402;0.016;2023-06-14T00:31:33;8.32;;;3.72;;
44774;SDS011;31340;51.402;0.016;2023-06-14T00:34:01;7.85;;;3.22;;
44774;SDS011;31340;51.402;0.016;2023-06-14T00:36:28;6.80;;;3.20;;
44774;SDS011;31340;51.402;0.016;2023-06-14T00:38:56;6.43;;;2.95;;
44774;SDS011;31340;51.402;0.016;2023-06-14T00:41:24;7.13;;;2.80;;
44774;SDS011;31340;51.402;0.016;2023-06-14T00:43:51;8.82;;;3.05;;
44774;SDS011;31340;51.402;0.016;2023-06-14T00:46:19;8.45;;;2.97;;
44774;SDS011;31340;51.402;0.016;2023-06-14T00:48:47;7.60;;;2.80;;
44774;SDS011;31340;51.402;0.016;2023-06-14T00:51:16;7.25;;;2.80;;
44774;SDS011;31340;51.402;0.016;2023-06-14T00:53:44;8.00;;;3.08;;
44774;SDS011;31340;51.402;0.016;2023-06-14T00:56:14;5.78;;;2.80;;
44774;SDS011;31340;51.402;0.016;2023-06-14T00:58:41;12.70;;;3.08;;
44774;SDS011;31340;51.402;0.016;2023-06-14T01:01:10;8.43;;;3.33;;
44774;SDS011;31340;51.402;0.016;2023-06-14T01:03:38;7.38;;;2.70;;
44774;SDS011;31340;51.402;0.016;2023-06-14T01:08:47;11.05;;;3.80;;
44774;SDS011;31340;51.402;0.016;2023-06-14T01:11:28;9.27;;;3.08;;
44774;SDS011;31340;51.402;0.016;2023-06-14T01:14:00;7.00;;;2.70;;
44774;SDS011;31340;51.402;0.016;2023-06-14T01:16:30;11.23;;;3.83;;
44774;SDS011;31340;51.402;0.016;2023-06-14T01:18:59;8.90;;;2.97;;
44774;SDS011;31340;51.402;0.016;2023-06-14T01:21:29;6.13;;;2.83;;
44774;SDS011;31340;51.402;0.016;2023-06-14T01:23:57;8.88;;;2.80;;
44774;SDS011;31340;51.402;0.016;2023-06-14T01:26:26;7.75;;;2.92;;
44774;SDS011;31340;51.402;0.016;2023-06-14T01:28:59;10.82;;;2.78;;
44774;SDS011;31340;51.402;0.016;2023-06-14T01:31:27;6.00;;;3.10;;
44774;SDS011;31340;51.402;0.016;2023-06-14T01:33:56;6.85;;;2.88;;
44774;SDS011;31340;51.402;0.016;2023-06-14T01:36:24;9.15;;;3.05;;
44774;SDS011;31340;51.402;0.016;2023-06-14T01:38:57;8.07;;;3.38;;
44774;SDS011;31340;51.402;0.016;2023-06-14T01:41:27;9.10;;;4.17;;
44774;SDS011;31340;51.402;0.016;2023-06-14T01:43:57;7.85;;;4.20;;
44774;SDS011;31340;51.402;0.016;2023-06-14T01:46:26;6.68;;;3.20;;
44774;SDS011;31340;51.402;0.016;2023-06-14T01:48:54;11.82;;;3.97;;
44774;SDS011;31340;51.402;0.016;2023-06-14T01:51:22;7.55;;;3.20;;
44774;SDS011;31340;51.402;0.016;2023-06-14T01:53:50;8.07;;;3.72;;
44774;SDS011;31340;51.402;0.016;2023-06-14T01:56:19;10.18;;;3.08;;
44774;SDS011;31340;51.402;0.016;2023-06-14T01:58:48;8.73;;;3.05;;
44774;SDS011;31340;51.402;0.016;2023-06-14T02:01:17;7.47;;;3.05;;
44774;SDS011;31340;51.402;0.016;2023-06-14T02:03:46;8.88;;;3.58;;
44774;SDS011;31340;51.402;0.016;2023-06-14T02:06:15;8.68;;;3.33;;
44774;SDS011;31340;51.402;0.016;2023-06-14T02:08:43;12.25;;;3.90;;
44774;SDS011;31340;51.402;0.016;2023-06-14T02:11:12;10.82;;;3.38;;
44774;SDS011;31340;51.402;0.016;2023-06-14T02:13:39;10.52;;;3.95;;
44774;SDS011;31340;51.402;0.016;2023-06-14T02:16:07;9.60;;;3.58;;
44774;SDS011;31340;51.402;0.016;2023-06-14T02:18:38;11.60;;;3.95;;
44774;SDS011;31340;51.402;0.016;2023-06-14T02:21:06;8.15;;;3.83;;
44774;SDS011;31340;51.402;0.016;2023-06-14T02:23:34;10.90;;;3.97;;
44774;SDS011;31340;51.402;0.016;2023-06-14T02:26:02;9.43;;;3.72;;
44774;SDS011;31340;51.402;0.016;2023-06-14T02:28:30;9.23;;;3.85;;
44774;SDS011;31340;51.402;0.016;2023-06-14T02:30:58;18.83;;;3.97;;
44774;SDS011;31340;51.402;0.016;2023-06-14T02:33:25;14.82;;;4.38;;
44774;SDS011;31340;51.402;0.016;2023-06-14T02:35:53;10.85;;;4.28;;
44774;SDS011;31340;51.402;0.016;2023-06-14T02:38:21;8.82;;;3.85;;
44774;SDS011;31340;51.402;0.016;2023-06-14T02:40:48;14.45;;;3.95;;
44774;SDS011;31340;51.402;0.016;2023-06-14T02:43:16;13.10;;;4.55;;
44774;SDS011;31340;51.402;0.016;2023-06-14T02:45:44;8.82;;;4.10;;
44774;SDS011;31340;51.402;0.016;2023-06-14T02:48:13;8.85;;;3.60;;
44774;SDS011;31340;51.402;0.016;2023-06-14T02:50:41;14.55;;;3.92;;
44774;SDS011;31340;51.402;0.016;2023-06-14T02:53:09;7.30;;;3.50;;
44774;SDS011;31340;51.402;0.016;2023-06-14T02:55:37;12.85;;;4.75;;
44774;SDS011;31340;51.402;0.016;2023-06-14T02:58:08;14.50;;;5.00;;
44774;SDS011;31340;51.402;0.016;2023-06-14T03:00:36;9.25;;;4.30;;
44774;SDS011;31340;51.402;0.016;2023-06-14T03:03:05;13.57;;;3.85;;
44774;SDS011;31340;51.402;0.016;2023-06-14T03:05:44;10.30;;;3.95;;
44774;SDS011;31340;51.402;0.016;2023-06-14T03:08:18;10.68;;;4.00;;
44774;SDS011;31340;51.402;0.016;2023-06-14T03:10:51;10.10;;;4.00;;
44774;SDS011;31340;51.402;0.016;2023-06-14T03:13:19;11.02;;;4.13;;
44774;SDS011;31340;51.402;0.016;2023-06-14T03:15:51;10.80;;;4.63;;
44774;SDS011;31340;51.402;0.016;2023-06-14T03:18:21;12.15;;;4.10;;
44774;SDS011;31340;51.402;0.016;2023-06-14T03:20:54;8.45;;;4.03;;
44774;SDS011;31340;51.402;0.016;2023-06-14T03:23:25;10.10;;;4.47;;
44774;SDS011;31340;51.402;0.016;2023-06-14T03:25:53;17.13;;;4.70;;
44774;SDS011;31340;51.402;0.016;2023-06-14T03:28:21;12.43;;;4.60;;
44774;SDS011;31340;51.402;0.016;2023-06-14T03:30:49;9.25;;;4.20;;
44774;SDS011;31340;51.402;0.016;2023-06-14T03:33:18;11.98;;;4.22;;
44774;SDS011;31340;51.402;0.016;2023-06-14T03:35:46;13.00;;;4.22;;
44774;SDS011;31340;51.402;0.016;2023-06-14T03:38:14;14.82;;;4.32;;
44774;SDS011;31340;51.402;0.016;2023-06-14T03:40:42;10.65;;;4.03;;
44774;SDS011;31340;51.402;0.016;2023-06-14T03:43:11;10.45;;;4.25;;
44774;SDS011;31340;51.402;0.016;2023-06-14T03:45:39;11.95;;;4.93;;
44774;SDS011;31340;51.402;0.016;2023-06-14T03:48:08;17.02;;;4.60;;
44774;SDS011;31340;51.402;0.016;2023-06-14T03:50:37;14.32;;;4.72;;
44774;SDS011;31340;51.402;0.016;2023-06-14T03:53:06;10.73;;;4.03;;
44774;SDS011;31340;51.402;0.016;2023-06-14T03:55:36;12.77;;;4.53;;
44774;SDS011;31340;51.402;0.016;2023-06-14T03:58:25;10.45;;;4.32;;
44774;SDS011;31340;51.402;0.016;2023-06-14T04:00:53;14.85;;;4.47;;
44774;SDS011;31340;51.402;0.016;2023-06-14T04:03:21;11.77;;;4.45;;
44774;SDS011;31340;51.402;0.016;2023-06-14T04:05:57;10.52;;;4.30;;
44774;SDS011;31340;51.402;0.016;2023-06-14T04:08:27;9.48;;;4.40;;
44774;SDS011;31340;51.402;0.016;2023-06-14T04:10:54;15.27;;;4.65;;
44774;SDS011;31340;51.402;0.016;2023-06-14T04:13:22;12.40;;;4.43;;
44774;SDS011;31340;51.402;0.016;2023-06-14T04:15:50;11.48;;;4.55;;
44774;SDS011;31340;51.402;0.016;2023-06-14T04:18:24;13.43;;;4.72;;
44774;SDS011;31340;51.402;0.016;2023-06-14T04:20:52;10.25;;;4.80;;
44774;SDS011;31340;51.402;0.016;2023-06-14T04:23:20;17.98;;;5.47;;
44774;SDS011;31340;51.402;0.016;2023-06-14T04:25:49;10.93;;;4.60;;
44774;SDS011;31340;51.402;0.016;2023-06-14T04:28:17;11.93;;;5.35;;
44774;SDS011;31340;51.402;0.016;2023-06-14T04:30:46;13.32;;;4.60;;
44774;SDS011;31340;51.402;0.016;2023-06-14T04:33:17;14.32;;;4.97;;
44774;SDS011;31340;51.402;0.016;2023-06-14T04:35:45;10.75;;;4.63;;
44774;SDS011;31340;51.402;0.016;2023-06-14T04:38:19;15.23;;;5.28;;
44774;SDS011;31340;51.402;0.016;2023-06-14T04:40:52;12.27;;;5.47;;
44774;SDS011;31340;51.402;0.016;2023-06-14T04:43:22;13.43;;;6.35;;
44774;SDS011;31340;51.402;0.016;2023-06-14T04:45:53;16.05;;;6.03;;
44774;SDS011;31340;51.402;0.016;2023-06-14T04:48:24;17.30;;;6.40;;
44774;SDS011;31340;51.402;0.016;2023-06-14T04:50:51;13.32;;;5.28;;
44774;SDS011;31340;51.402;0.016;2023-06-14T04:53:20;17.95;;;5.93;;
44774;SDS011;31340;51.402;0.016;2023-06-14T04:55:53;22.67;;;6.38;;
44774;SDS011;31340;51.402;0.016;2023-06-14T04:58:22;14.55;;;5.20;;
44774;SDS011;31340;51.402;0.016;2023-06-14T05:00:50;12.00;;;6.05;;
44774;SDS011;31340;51.402;0.016;2023-06-14T05:03:18;14.70;;;5.63;;
44774;SDS011;31340;51.402;0.016;2023-06-14T05:05:48;14.50;;;6.30;;
44774;SDS011;31340;51.402;0.016;2023-06-14T05:08:16;20.70;;;6.60;;
44774;SDS011;31340;51.402;0.016;2023-06-14T05:10:45;19.95;;;6.47;;
44774;SDS011;31340;51.402;0.016;2023-06-14T05:13:13;16.63;;;5.55;;
44774;SDS011;31340;51.402;0.016;2023-06-14T05:15:41;12.02;;;5.80;;
44774;SDS011;31340;51.402;0.016;2023-06-14T05:18:09;13.65;;;5.72;;
44774;SDS011;31340;51.402;0.016;2023-06-14T05:20:36;14.30;;;5.88;;
44774;SDS011;31340;51.402;0.016;2023-06-14T05:23:04;15.55;;;5.35;;
44774;SDS011;31340;51.402;0.016;2023-06-14T05:25:32;20.60;;;7.47;;
44774;SDS011;31340;51.402;0.016;2023-06-14T05:27:59;15.52;;;6.40;;
44774;SDS011;31340;51.402;0.016;2023-06-14T05:30:27;15.07;;;5.97;;
44774;SDS011;31340;51.402;0.016;2023-06-14T05:32:57;13.88;;;6.25;;
44774;SDS011;31340;51.402;0.016;2023-06-14T05:35:25;17.10;;;6.85;;
44774;SDS011;31340;51.402;0.016;2023-06-14T05:37:54;22.98;;;6.47;;
44774;SDS011;31340;51.402;0.016;2023-06-14T05:40:21;17.90;;;6.38;;
44774;SDS011;31340;51.402;0.016;2023-06-14T05:42:49;24.17;;;7.07;;
44774;SDS011;31340;51.402;0.016;2023-06-14T05:45:17;12.15;;;5.78;;
44774;SDS011;31340;51.402;0.016;2023-06-14T05:47:45;12.10;;;6.03;;
44774;SDS011;31340;51.402;0.016;2023-06-14T05:50:13;15.05;;;6.38;;
44774;SDS011;31340;51.402;0.016;2023-06-14T05:52:40;16.70;;;6.10;;
44774;SDS011;31340;51.402;0.016;2023-06-14T05:55:08;13.02;;;5.25;;
44774;SDS011;31340;51.402;0.016;2023-06-14T05:57:39;11.05;;;5.25;;
44774;SDS011;31340;51.402;0.016;2023-06-14T06:00:08;15.27;;;6.07;;
44774;SDS011;31340;51.402;0.016;2023-06-14T06:02:39;12.10;;;6.05;;
44774;SDS011;31340;51.402;0.016;2023-06-14T06:05:09;17.90;;;6.18;;
44774;SDS011;31340;51.402;0.016;2023-06-14T06:07:39;12.07;;;5.83;;
44774;SDS011;31340;51.402;0.016;2023-06-14T06:10:07;13.68;;;5.97;;
44774;SDS011;31340;51.402;0.016;2023-06-14T06:12:35;21.15;;;6.75;;
44774;SDS011;31340;51.402;0.016;2023-06-14T06:15:02;17.02;;;6.95;;
44774;SDS011;31340;51.402;0.016;2023-06-14T06:17:31;18.65;;;6.32;;
44774;SDS011;31340;51.402;0.016;2023-06-14T06:20:18;21.73;;;6.20;;
44774;SDS011;31340;51.402;0.016;2023-06-14T06:22:46;16.42;;;6.45;;
44774;SDS011;31340;51.402;0.016;2023-06-14T06:25:13;20.42;;;6.10;;
44774;SDS011;31340;51.402;0.016;2023-06-14T06:27:42;14.55;;;5.53;;
44774;SDS011;31340;51.402;0.016;2023-06-14T06:30:09;20.95;;;6.05;;
44774;SDS011;31340;51.402;0.016;2023-06-14T06:32:38;12.85;;;5.85;;
44774;SDS011;31340;51.402;0.016;2023-06-14T06:35:05;12.80;;;5.38;;
44774;SDS011;31340;51.402;0.016;2023-06-14T06:37:34;22.73;;;7.20;;
44774;SDS011;31340;51.402;0.016;2023-06-14T06:40:02;16.92;;;6.43;;
44774;SDS011;31340;51.402;0.016;2023-06-14T06:42:33;16.90;;;6.68;;
44774;SDS011;31340;51.402;0.016;2023-06-14T06:45:04;19.27;;;7.22;;
44774;SDS011;31340;51.402;0.016;2023-06-14T06:47:33;20.23;;;7.38;;
44774;SDS011;31340;51.402;0.016;2023-06-14T06:50:00;22.85;;;7.03;;
44774;SDS011;31340;51.402;0.016;2023-06-14T06:52:29;16.63;;;6.15;;
44774;SDS011;31340;51.402;0.016;2023-06-14T06:54:57;22.25;;;7.20;;
44774;SDS011;31340;51.402;0.016;2023-06-14T06:57:25;13.18;;;6.60;;
44774;SDS011;31340;51.402;0.016;2023-06-14T06:59:53;19.35;;;7.10;;
44774;SDS011;31340;51.402;0.016;2023-06-14T07:02:20;19.33;;;6.90;;
44774;SDS011;31340;51.402;0.016;2023-06-14T07:04:48;19.38;;;6.93;;
44774;SDS011;31340;51.402;0.016;2023-06-14T07:07:17;22.63;;;6.65;;
44774;SDS011;31340;51.402;0.016;2023-06-14T07:09:44;22.85;;;7.50;;
44774;SDS011;31340;51.402;0.016;2023-06-14T07:12:12;16.38;;;7.18;;
44774;SDS011;31340;51.402;0.016;2023-06-14T07:14:40;22.67;;;7.15;;
44774;SDS011;31340;51.402;0.016;2023-06-14T07:17:07;18.15;;;6.95;;
44774;SDS011;31340;51.402;0.016;2023-06-14T07:19:36;22.67;;;7.40;;
44774;SDS011;31340;51.402;0.016;2023-06-14T07:22:07;22.90;;;7.78;;
44774;SDS011;31340;51.402;0.016;2023-06-14T07:24:36;17.77;;;6.93;;
44774;SDS011;31340;51.402;0.016;2023-06-14T07:27:03;20.88;;;8.00;;
44774;SDS011;31340;51.402;0.016;2023-06-14T07:29:31;23.50;;;8.43;;
44774;SDS011;31340;51.402;0.016;2023-06-14T07:31:59;14.90;;;6.95;;
44774;SDS011;31340;51.402;0.016;2023-06-14T07:34:27;25.15;;;8.40;;
44774;SDS011;31340;51.402;0.016;2023-06-14T07:36:55;24.60;;;7.90;;
44774;SDS011;31340;51.402;0.016;2023-06-14T07:39:22;23.42;;;7.45;;
44774;SDS011;31340;51.402;0.016;2023-06-14T07:41:52;18.30;;;7.80;;
44774;SDS011;31340;51.402;0.016;2023-06-14T07:44:20;22.83;;;7.78;;
44774;SDS011;31340;51.402;0.016;2023-06-14T07:46:47;17.95;;;8.07;;
44774;SDS011;31340;51.402;0.016;2023-06-14T07:49:16;22.70;;;8.85;;
44774;SDS011;31340;51.402;0.016;2023-06-14T07:51:44;21.33;;;7.75;;
44774;SDS011;31340;51.402;0.016;2023-06-14T07:54:13;18.45;;;7.95;;
44774;SDS011;31340;51.402;0.016;2023-06-14T07:56:41;22.45;;;8.57;;
44774;SDS011;31340;51.402;0.016;2023-06-14T07:59:10;29.70;;;8.88;;
44774;SDS011;31340;51.402;0.016;2023-06-14T08:01:38;22.38;;;8.25;;
44774;SDS011;31340;51.402;0.016;2023-06-14T08:04:06;24.40;;;8.85;;
44774;SDS011;31340;51.402;0.016;2023-06-14T08:06:34;21.77;;;7.88;;
44774;SDS011;31340;51.402;0.016;2023-06-14T08:09:02;25.02;;;7.78;;
44774;SDS011;31340;51.402;0.016;2023-06-14T08:11:30;18.83;;;8.13;;
44774;SDS011;31340;51.402;0.016;2023-06-14T08:13:57;19.85;;;7.28;;
44774;SDS011;31340;51.402;0.016;2023-06-14T08:16:25;20.27;;;8.10;;
44774;SDS011;31340;51.402;0.016;2023-06-14T08:18:53;21.77;;;7.93;;
44774;SDS011;31340;51.402;0.016;2023-06-14T08:21:21;19.17;;;7.65;;
44774;SDS011;31340;51.402;0.016;2023-06-14T08:23:49;15.35;;;7.53;;
44774;SDS011;31340;51.402;0.016;2023-06-14T08:26:20;20.60;;;7.18;;
44774;SDS011;31340;51.402;0.016;2023-06-14T08:28:49;18.55;;;6.95;;
44774;SDS011;31340;51.402;0.016;2023-06-14T08:31:17;28.65;;;8.88;;
44774;SDS011;31340;51.402;0.016;2023-06-14T08:33:44;24.95;;;7.40;;
44774;SDS011;31340;51.402;0.016;2023-06-14T08:36:13;22.15;;;7.32;;
44774;SDS011;31340;51.402;0.016;2023-06-14T08:38:41;23.80;;;7.65;;
44774;SDS011;31340;51.402;0.016;2023-06-14T08:41:09;22.08;;;8.57;;
44774;SDS011;31340;51.402;0.016;2023-06-14T08:43:40;27.98;;;8.43;;
44774;SDS011;31340;51.402;0.016;2023-06-14T08:46:08;20.38;;;6.70;;
44774;SDS011;31340;51.402;0.016;2023-06-14T08:48:38;20.45;;;6.90;;
44774;SDS011;31340;51.402;0.016;2023-06-14T08:51:06;23.23;;;6.97;;
44774;SDS011;31340;51.402;0.016;2023-06-14T08:53:36;16.95;;;7.05;;
44774;SDS011;31340;51.402;0.016;2023-06-14T08:56:09;23.30;;;6.65;;
44774;SDS011;31340;51.402;0.016;2023-06-14T08:58:41;14.35;;;7.28;;
44774;SDS011;31340;51.402;0.016;2023-06-14T09:01:12;17.70;;;6.53;;
44774;SDS011;31340;51.402;0.016;2023-06-14T09:03:41;12.30;;;6.68;;
44774;SDS011;31340;51.402;0.016;2023-06-14T09:06:09;21.35;;;7.15;;
44774;SDS011;31340;51.402;0.016;2023-06-14T09:08:43;20.05;;;6.90;;
44774;SDS011;31340;51.402;0.016;2023-06-14T09:11:13;21.05;;;6.97;;
44774;SDS011;31340;51.402;0.016;2023-06-14T09:13:43;24.70;;;7.32;;
44774;SDS011;31340;51.402;0.016;2023-06-14T09:16:12;14.80;;;6.68;;
44774;SDS011;31340;51.402;0.016;2023-06-14T09:18:40;19.88;;;6.78;;
44774;SDS011;31340;51.402;0.016;2023-06-14T09:21:11;21.85;;;7.07;;
44774;SDS011;31340;51.402;0.016;2023-06-14T09:23:46;14.23;;;5.75;;
44774;SDS011;31340;51.402;0.016;2023-06-14T09:26:18;26.67;;;6.72;;
44774;SDS011;31340;51.402;0.016;2023-06-14T09:28:47;18.23;;;6.40;;
44774;SDS011;31340;51.402;0.016;2023-06-14T09:31:17;20.20;;;6.22;;
44774;SDS011;31340;51.402;0.016;2023-06-14T09:33:47;19.95;;;6.43;;
44774;SDS011;31340;51.402;0.016;2023-06-14T09:36:16;21.50;;;6.22;;
44774;SDS011;31340;51.402;0.016;2023-06-14T09:39:19;21.67;;;6.53;;
44774;SDS011;31340;51.402;0.016;2023-06-14T09:41:43;21.67;;;7.80;;
44774;SDS011;31340;51.402;0.016;2023-06-14T09:44:11;16.33;;;6.25;;
44774;SDS011;31340;51.402;0.016;2023-06-14T09:46:47;19.10;;;6.80;;
44774;SDS011;31340;51.402;0.016;2023-06-14T09:49:15;22.45;;;7.03;;
44774;SDS011;31340;51.402;0.016;2023-06-14T09:51:43;20.55;;;6.88;;
44774;SDS011;31340;51.402;0.016;2023-06-14T09:54:15;17.42;;;7.07;;
44774;SDS011;31340;51.402;0.016;2023-06-14T09:56:47;23.83;;;7.78;;
44774;SDS011;31340;51.402;0.016;2023-06-14T09:59:16;17.58;;;6.55;;
44774;SDS011;31340;51.402;0.016;2023-06-14T10:01:47;17.13;;;6.45;;
44774;SDS011;31340;51.402;0.016;2023-06-14T10:04:16;17.35;;;6.40;;
44774;SDS011;31340;51.402;0.016;2023-06-14T10:06:48;20.45;;;6.28;;
44774;SDS011;31340;51.402;0.016;2023-06-14T10:09:17;21.88;;;6.88;;
44774;SDS011;31340;51.402;0.016;2023-06-14T10:11:45;16.33;;;6.55;;
44774;SDS011;31340;51.402;0.016;2023-06-14T10:14:13;15.40;;;6.32;;
44774;SDS011;31340;51.402;0.016;2023-06-14T10:19:18;19.02;;;6.50;;
44774;SDS011;31340;51.402;0.016;2023-06-14T10:24:44;19.23;;;6.53;;
44774;SDS011;31340;51.402;0.016;2023-06-14T10:27:13;14.63;;;5.50;;
44774;SDS011;31340;51.402;0.016;2023-06-14T10:32:21;15.98;;;6.00;;
44774;SDS011;31340;51.402;0.016;2023-06-14T10:34:56;15.82;;;6.15;;
44774;SDS011;31340;51.402;0.016;2023-06-14T10:37:28;18.65;;;7.35;;
44774;SDS011;31340;51.402;0.016;2023-06-14T10:39:56;15.45;;;6.45;;
44774;SDS011;31340;51.402;0.016;2023-06-14T10:42:28;13.27;;;5.72;;
44774;SDS011;31340;51.402;0.016;2023-06-14T10:44:59;18.95;;;6.18;;
44774;SDS011;31340;51.402;0.016;2023-06-14T10:50:10;16.27;;;6.38;;
44774;SDS011;31340;51.402;0.016;2023-06-14T10:52:42;13.05;;;6.00;;
44774;SDS011;31340;51.402;0.016;2023-06-14T10:57:44;15.45;;;6.05;;
44774;SDS011;31340;51.402;0.016;2023-06-14T11:00:16;11.90;;;6.05;;
44774;SDS011;31340;51.402;0.016;2023-06-14T11:08:18;15.48;;;6.15;;
44774;SDS011;31340;51.402;0.016;2023-06-14T11:11:08;13.02;;;6.05;;
44774;SDS011;31340;51.402;0.016;2023-06-14T11:13:42;13.40;;;6.40;;
44774;SDS011;31340;51.402;0.016;2023-06-14T11:16:16;14.65;;;6.25;;
44774;SDS011;31340;51.402;0.016;2023-06-14T11:18:46;11.02;;;6.10;;
44774;SDS011;31340;51.402;0.016;2023-06-14T11:21:17;13.63;;;6.57;;
44774;SDS011;31340;51.402;0.016;2023-06-14T11:23:51;13.70;;;7.80;;
44774;SDS011;31340;51.402;0.016;2023-06-14T11:26:26;14.60;;;6.78;;
44774;SDS011;31340;51.402;0.016;2023-06-14T11:28:59;13.30;;;5.63;;
44774;SDS011;31340;51.402;0.016;2023-06-14T11:31:27;12.65;;;5.70;;
44774;SDS011;31340;51.402;0.016;2023-06-14T11:33:57;13.18;;;5.38;;
44774;SDS011;31340;51.402;0.016;2023-06-14T11:36:31;18.42;;;6.03;;
44774;SDS011;31340;51.402;0.016;2023-06-14T11:39:02;15.23;;;5.95;;
44774;SDS011;31340;51.402;0.016;2023-06-14T11:41:36;18.90;;;6.53;;
44774;SDS011;31340;51.402;0.016;2023-06-14T11:44:06;16.50;;;6.82;;
44774;SDS011;31340;51.402;0.016;2023-06-14T11:46:34;15.35;;;6.05;;
44774;SDS011;31340;51.402;0.016;2023-06-14T11:49:02;14.52;;;6.45;;
44774;SDS011;31340;51.402;0.016;2023-06-14T11:51:32;13.15;;;5.88;;
44774;SDS011;31340;51.402;0.016;2023-06-14T11:54:01;15.80;;;6.20;;
44774;SDS011;31340;51.402;0.016;2023-06-14T11:56:33;20.00;;;6.00;;
44774;SDS011;31340;51.402;0.016;2023-06-14T11:59:02;13.15;;;5.68;;
44774;SDS011;31340;51.402;0.016;2023-06-14T12:01:35;14.88;;;6.20;;
44774;SDS011;31340;51.402;0.016;2023-06-14T12:04:05;15.15;;;5.82;;
44774;SDS011;31340;51.402;0.016;2023-06-14T12:06:32;15.02;;;5.30;;
44774;SDS011;31340;51.402;0.016;2023-06-14T12:09:03;16.52;;;6.07;;
44774;SDS011;31340;51.402;0.016;2023-06-14T12:14:02;15.88;;;5.75;;
44774;SDS011;31340;51.402;0.016;2023-06-14T12:16:31;14.70;;;5.57;;
44774;SDS011;31340;51.402;0.016;2023-06-14T12:19:07;15.52;;;5.72;;
44774;SDS011;31340;51.402;0.016;2023-06-14T12:21:42;9.52;;;5.60;;
44774;SDS011;31340;51.402;0.016;2023-06-14T12:24:14;16.33;;;5.97;;
44774;SDS011;31340;51.402;0.016;2023-06-14T12:26:42;12.77;;;5.72;;
44774;SDS011;31340;51.402;0.016;2023-06-14T12:29:09;11.75;;;5.47;;
44774;SDS011;31340;51.402;0.016;2023-06-14T12:31:40;12.00;;;5.65;;
44774;SDS011;31340;51.402;0.016;2023-06-14T12:34:09;13.15;;;5.75;;
44774;SDS011;31340;51.402;0.016;2023-06-14T12:36:37;9.07;;;5.22;;
44774;SDS011;31340;51.402;0.016;2023-06-14T12:39:09;13.32;;;5.47;;
44774;SDS011;31340;51.402;0.016;2023-06-14T12:41:36;10.68;;;5.53;;
44774;SDS011;31340;51.402;0.016;2023-06-14T12:44:04;14.55;;;5.22;;
44774;SDS011;31340;51.402;0.016;2023-06-14T12:46:32;12.45;;;5.60;;
44774;SDS011;31340;51.402;0.016;2023-06-14T12:49:02;9.95;;;5.72;;
44774;SDS011;31340;51.402;0.016;2023-06-14T12:51:30;8.80;;;5.10;;
44774;SDS011;31340;51.402;0.016;2023-06-14T12:53:57;8.95;;;5.30;;
44774;SDS011;31340;51.402;0.016;2023-06-14T12:56:25;8.73;;;5.03;;
44774;SDS011;31340;51.402;0.016;2023-06-14T12:58:53;11.10;;;5.22;;
44774;SDS011;31340;51.402;0.016;2023-06-14T13:01:21;18.00;;;5.22;;
44774;SDS011;31340;51.402;0.016;2023-06-14T13:03:48;11.95;;;5.43;;
44774;SDS011;31340;51.402;0.016;2023-06-14T13:08:48;8.98;;;5.15;;
44774;SDS011;31340;51.402;0.016;2023-06-14T13:11:17;12.60;;;5.00;;
44774;SDS011;31340;51.402;0.016;2023-06-14T13:13:44;8.27;;;5.15;;
44774;SDS011;31340;51.402;0.016;2023-06-14T13:16:12;12.55;;;4.95;;
44774;SDS011;31340;51.402;0.016;2023-06-14T13:18:41;12.10;;;5.10;;
44774;SDS011;31340;51.402;0.016;2023-06-14T13:21:09;12.40;;;5.38;;
44774;SDS011;31340;51.402;0.016;2023-06-14T13:23:37;10.73;;;5.22;;
44774;SDS011;31340;51.402;0.016;2023-06-14T13:26:04;9.68;;;5.07;;
44774;SDS011;31340;51.402;0.016;2023-06-14T13:28:32;15.30;;;5.13;;
44774;SDS011;31340;51.402;0.016;2023-06-14T13:31:01;10.75;;;5.50;;
44774;SDS011;31340;51.402;0.016;2023-06-14T13:33:29;12.25;;;5.05;;
44774;SDS011;31340;51.402;0.016;2023-06-14T13:35:56;10.02;;;5.22;;
44774;SDS011;31340;51.402;0.016;2023-06-14T13:38:24;13.70;;;5.38;;
44774;SDS011;31340;51.402;0.016;2023-06-14T13:40:52;8.85;;;4.90;;
44774;SDS011;31340;51.402;0.016;2023-06-14T13:43:19;11.23;;;5.80;;
44774;SDS011;31340;51.402;0.016;2023-06-14T13:45:47;12.20;;;6.20;;
44774;SDS011;31340;51.402;0.016;2023-06-14T13:48:14;8.75;;;5.30;;
44774;SDS011;31340;51.402;0.016;2023-06-14T13:50:42;8.43;;;6.00;;
44774;SDS011;31340;51.402;0.016;2023-06-14T13:53:10;10.63;;;5.78;;
44774;SDS011;31340;51.402;0.016;2023-06-14T13:55:37;7.70;;;5.07;;
44774;SDS011;31340;51.402;0.016;2023-06-14T13:58:05;9.73;;;5.10;;
44774;SDS011;31340;51.402;0.016;2023-06-14T14:00:32;15.40;;;5.60;;
44774;SDS011;31340;51.402;0.016;2023-06-14T14:03:00;13.27;;;5.15;;
44774;SDS011;31340;51.402;0.016;2023-06-14T14:05:28;6.72;;;5.00;;
44774;SDS011;31340;51.402;0.016;2023-06-14T14:07:57;8.93;;;5.00;;
44774;SDS011;31340;51.402;0.016;2023-06-14T14:10:25;8.30;;;5.25;;
44774;SDS011;31340;51.402;0.016;2023-06-14T14:12:53;9.45;;;5.28;;
44774;SDS011;31340;51.402;0.016;2023-06-14T14:15:21;9.23;;;4.68;;
44774;SDS011;31340;51.402;0.016;2023-06-14T14:17:49;7.20;;;5.20;;
44774;SDS011;31340;51.402;0.016;2023-06-14T14:20:17;8.18;;;5.45;;
44774;SDS011;31340;51.402;0.016;2023-06-14T14:22:45;8.00;;;5.50;;
44774;SDS011;31340;51.402;0.016;2023-06-14T14:25:13;14.07;;;5.78;;
44774;SDS011;31340;51.402;0.016;2023-06-14T14:27:41;9.80;;;5.47;;
44774;SDS011;31340;51.402;0.016;2023-06-14T14:30:09;13.00;;;5.50;;
44774;SDS011;31340;51.402;0.016;2023-06-14T14:32:37;9.57;;;5.50;;
44774;SDS011;31340;51.402;0.016;2023-06-14T14:35:05;8.65;;;5.50;;
44774;SDS011;31340;51.402;0.016;2023-06-14T14:37:33;8.40;;;5.13;;
44774;SDS011;31340;51.402;0.016;2023-06-14T14:40:01;5.82;;;4.80;;
44774;SDS011;31340;51.402;0.016;2023-06-14T14:42:30;8.35;;;4.70;;
44774;SDS011;31340;51.402;0.016;2023-06-14T14:44:58;11.43;;;5.00;;
44774;SDS011;31340;51.402;0.016;2023-06-14T14:47:25;8.73;;;4.80;;
44774;SDS011;31340;51.402;0.016;2023-06-14T14:49:53;7.22;;;4.93;;
44774;SDS011;31340;51.402;0.016;2023-06-14T14:52:20;7.63;;;4.82;;
44774;SDS011;31340;51.402;0.016;2023-06-14T14:57:18;7.82;;;5.07;;
44774;SDS011;31340;51.402;0.016;2023-06-14T14:59:46;9.32;;;4.90;;
44774;SDS011;31340;51.402;0.016;2023-06-14T15:02:13;9.43;;;4.82;;
44774;SDS011;31340;51.402;0.016;2023-06-14T15:04:41;10.65;;;4.80;;
44774;SDS011;31340;51.402;0.016;2023-06-14T15:07:08;4.88;;;4.38;;
44774;SDS011;31340;51.402;0.016;2023-06-14T15:09:36;19.00;;;5.28;;
44774;SDS011;31340;51.402;0.016;2023-06-14T15:12:04;11.60;;;4.93;;
44774;SDS011;31340;51.402;0.016;2023-06-14T15:14:34;8.40;;;4.80;;
44774;SDS011;31340;51.402;0.016;2023-06-14T15:17:01;9.32;;;4.45;;
44774;SDS011;31340;51.402;0.016;2023-06-14T15:19:32;13.95;;;5.53;;